createdAt,value
2023-01-10T00:01:06.470Z,5.54
2023-01-10T00:03:33.117Z,5.37
2023-01-10T00:05:59.749Z,5.23
2023-01-10T00:08:26.488Z,5.22
2023-01-10T00:10:53.152Z,5.28
2023-01-10T00:13:19.747Z,5.27
2023-01-10T00:15:46.612Z,5.51
2023-01-10T00:18:13.257Z,5.45
2023-01-10T00:20:39.887Z,5.37
2023-01-10T00:23:06.556Z,5.46
2023-01-10T00:25:33.194Z,5.30
2023-01-10T00:27:59.802Z,5.15
2023-01-10T00:30:26.513Z,5.12
2023-01-10T00:32:53.167Z,5.73
2023-01-10T00:35:19.767Z,5.65
2023-01-10T00:37:46.554Z,5.95
2023-01-10T00:40:13.297Z,5.73
2023-01-10T00:42:39.933Z,5.74
2023-01-10T00:45:07.127Z,5.48
2023-01-10T00:47:33.813Z,5.16
2023-01-10T00:50:00.394Z,4.56
2023-01-10T00:52:27.120Z,4.68
2023-01-10T00:54:53.734Z,4.88
2023-01-10T00:57:20.376Z,5.19
2023-01-10T00:59:46.945Z,5.08
2023-01-10T01:02:13.656Z,5.10
2023-01-10T01:04:40.330Z,5.23
2023-01-10T01:07:06.943Z,4.95
2023-01-10T01:09:33.541Z,5.20
2023-01-10T01:12:00.168Z,4.99
2023-01-10T01:14:26.841Z,4.96
2023-01-10T01:16:53.430Z,5.17
2023-01-10T01:19:20.092Z,5.15
2023-01-10T01:21:46.681Z,5.34
2023-01-10T01:24:13.268Z,5.26
2023-01-10T01:26:39.879Z,5.19
2023-01-10T01:29:06.551Z,5.37
2023-01-10T01:31:33.202Z,5.45
2023-01-10T01:33:59.888Z,5.33
2023-01-10T01:36:26.500Z,5.28
2023-01-10T01:38:53.108Z,5.14
2023-01-10T01:41:19.682Z,5.28
2023-01-10T01:44:10.456Z,5.09
2023-01-10T01:46:39.699Z,5.58
2023-01-10T01:49:14.121Z,5.79
2023-01-10T01:51:40.821Z,5.39
2023-01-10T01:54:10.581Z,5.41
2023-01-10T01:56:42.714Z,5.16
2023-01-10T01:59:20.919Z,4.98
2023-01-10T02:01:51.661Z,4.92
2023-01-10T02:04:30.402Z,5.35
2023-01-10T02:06:58.659Z,5.54
2023-01-10T02:09:34.869Z,5.69
2023-01-10T02:12:02.295Z,5.70
2023-01-10T02:14:31.351Z,5.47
2023-01-10T02:16:58.037Z,5.78
2023-01-10T02:19:59.108Z,5.97
2023-01-10T02:22:44.385Z,5.98
2023-01-10T02:25:29.752Z,5.94
2023-01-10T02:28:22.153Z,5.83
2023-01-10T02:31:19.116Z,6.16
2023-01-10T02:33:51.756Z,6.23
2023-01-10T02:36:42.850Z,6.13
2023-01-10T02:39:35.805Z,6.29
2023-01-10T02:42:08.065Z,5.92
2023-01-10T02:44:45.856Z,6.15
2023-01-10T02:47:14.057Z,6.27
2023-01-10T02:49:51.833Z,6.00
2023-01-10T02:52:26.546Z,5.93
2023-01-10T02:54:59.548Z,6.18
2023-01-10T02:57:58.055Z,5.85
2023-01-10T03:00:54.301Z,5.84
2023-01-10T03:03:42.499Z,5.79
2023-01-10T03:06:23.361Z,5.84
2023-01-10T03:09:06.959Z,6.08
2023-01-10T03:11:37.691Z,5.97
2023-01-10T03:14:06.801Z,5.89
2023-01-10T03:16:36.474Z,5.95
2023-01-10T03:19:15.856Z,5.93
2023-01-10T03:21:44.440Z,5.60
2023-01-10T03:24:19.162Z,5.47
2023-01-10T03:26:53.538Z,5.82
2023-01-10T03:29:28.716Z,5.53
2023-01-10T03:32:00.920Z,5.56
2023-01-10T03:34:27.807Z,5.55
2023-01-10T03:37:19.811Z,5.34
2023-01-10T03:39:54.225Z,5.39
2023-01-10T03:42:38.421Z,5.40
2023-01-10T03:45:09.717Z,5.36
2023-01-10T03:47:46.492Z,5.38
2023-01-10T03:50:23.090Z,5.38
2023-01-10T03:52:49.929Z,5.45
2023-01-10T03:55:22.337Z,5.54
2023-01-10T03:57:48.945Z,5.63
2023-01-10T04:00:16.670Z,5.45
2023-01-10T04:02:43.423Z,5.48
2023-01-10T04:05:10.739Z,5.63
2023-01-10T04:07:37.489Z,5.67
2023-01-10T04:10:05.822Z,5.64
2023-01-10T04:12:32.421Z,5.70
2023-01-10T04:14:59.024Z,5.72
2023-01-10T04:17:27.513Z,5.70
2023-01-10T04:19:54.112Z,5.38
2023-01-10T04:22:20.748Z,5.37
2023-01-10T04:24:47.338Z,5.52
2023-01-10T04:27:14.081Z,5.32
2023-01-10T04:29:40.804Z,5.17
2023-01-10T04:32:07.538Z,5.18
2023-01-10T04:34:34.134Z,5.15
2023-01-10T04:37:00.838Z,5.23
2023-01-10T04:39:27.434Z,5.28
2023-01-10T04:41:54.022Z,5.38
2023-01-10T04:44:20.616Z,5.34
2023-01-10T04:46:47.211Z,5.43
2023-01-10T04:49:13.798Z,5.37
2023-01-10T04:51:40.444Z,5.34
2023-01-10T04:54:07.064Z,5.39
2023-01-10T04:56:34.147Z,5.15
2023-01-10T04:59:00.736Z,5.31
2023-01-10T05:01:27.460Z,5.25
2023-01-10T05:03:56.127Z,4.91
2023-01-10T05:06:23.968Z,5.05
2023-01-10T05:08:50.703Z,5.30
2023-01-10T05:11:17.404Z,5.39
2023-01-10T05:13:44.020Z,5.21
2023-01-10T05:16:10.782Z,5.03
2023-01-10T05:18:37.401Z,5.03
2023-01-10T05:21:06.851Z,5.01
2023-01-10T05:23:33.828Z,5.13
2023-01-10T05:26:19.595Z,5.09
2023-01-10T05:28:46.215Z,5.23
2023-01-10T05:31:16.390Z,5.07
2023-01-10T05:33:47.823Z,5.26
2023-01-10T05:36:16.323Z,5.23
2023-01-10T05:38:42.973Z,4.93
2023-01-10T05:41:09.609Z,5.01
2023-01-10T05:43:36.251Z,4.85
2023-01-10T05:46:02.944Z,5.08
2023-01-10T05:48:29.661Z,5.13
2023-01-10T05:50:56.481Z,4.98
2023-01-10T05:53:23.436Z,5.11
2023-01-10T05:55:57.520Z,5.20
2023-01-10T05:58:24.859Z,5.34
2023-01-10T06:00:51.842Z,5.34
2023-01-10T06:03:19.175Z,5.09
2023-01-10T06:05:48.635Z,5.28
2023-01-10T06:08:15.503Z,5.36
2023-01-10T06:10:42.575Z,5.21
2023-01-10T06:13:09.279Z,5.13
2023-01-10T06:15:37.631Z,5.06
2023-01-10T06:18:04.967Z,5.03
2023-01-10T06:20:32.027Z,5.18
2023-01-10T06:22:58.779Z,5.00
2023-01-10T06:25:25.379Z,4.95
2023-01-10T06:27:52.049Z,4.97
2023-01-10T06:30:18.661Z,4.83
2023-01-10T06:32:45.296Z,4.82
2023-01-10T06:35:11.981Z,5.09
2023-01-10T06:37:38.574Z,4.98
2023-01-10T06:40:07.281Z,4.88
2023-01-10T06:42:33.908Z,4.88
2023-01-10T06:45:00.558Z,4.90
2023-01-10T06:47:27.327Z,4.88
2023-01-10T06:49:53.909Z,5.08
2023-01-10T06:52:20.565Z,5.12
2023-01-10T06:54:47.143Z,4.95
2023-01-10T06:57:13.841Z,4.89
2023-01-10T06:59:40.482Z,4.82
2023-01-10T07:02:07.296Z,4.85
2023-01-10T07:04:33.940Z,4.90
2023-01-10T07:07:00.717Z,4.87
2023-01-10T07:09:28.160Z,4.78
2023-01-10T07:11:54.880Z,4.66
2023-01-10T07:14:21.471Z,4.69
2023-01-10T07:16:48.244Z,4.71
2023-01-10T07:19:15.196Z,4.51
2023-01-10T07:21:41.792Z,4.38
2023-01-10T07:24:08.926Z,4.39
2023-01-10T07:26:35.648Z,4.37
2023-01-10T07:29:02.328Z,4.30
2023-01-10T07:31:29.032Z,4.48
2023-01-10T07:33:55.731Z,4.25
2023-01-10T07:36:22.666Z,4.27
2023-01-10T07:38:49.263Z,4.36
2023-01-10T07:41:15.863Z,4.32
2023-01-10T07:43:42.552Z,4.28
2023-01-10T07:46:10.936Z,4.30
2023-01-10T07:48:38.510Z,4.30
2023-01-10T07:51:05.658Z,4.32
2023-01-10T07:53:32.246Z,4.20
2023-01-10T07:56:01.300Z,4.18
2023-01-10T07:58:28.956Z,4.26
2023-01-10T08:00:59.786Z,4.19
2023-01-10T08:03:27.364Z,4.04
2023-01-10T08:06:01.591Z,4.12
2023-01-10T08:08:28.439Z,4.22
2023-01-10T08:10:55.032Z,4.21
2023-01-10T08:13:21.751Z,4.25
2023-01-10T08:15:48.433Z,4.15
2023-01-10T08:18:15.026Z,4.15
2023-01-10T08:20:41.637Z,4.18
2023-01-10T08:23:08.252Z,4.20
2023-01-10T08:25:34.935Z,4.25
2023-01-10T08:28:01.520Z,4.49
2023-01-10T08:30:28.168Z,4.64
2023-01-10T08:32:54.961Z,4.22
2023-01-10T08:35:21.573Z,4.30
2023-01-10T08:37:48.359Z,4.13
2023-01-10T08:40:15.118Z,4.18
2023-01-10T08:42:41.700Z,4.15
2023-01-10T08:45:10.124Z,4.14
2023-01-10T08:47:36.711Z,4.14
2023-01-10T08:50:03.369Z,4.06
2023-01-10T08:52:30.966Z,4.14
2023-01-10T08:54:57.563Z,4.01
2023-01-10T08:57:24.165Z,3.97
2023-01-10T08:59:50.743Z,4.19
2023-01-10T09:02:17.360Z,4.06
2023-01-10T09:04:43.994Z,3.99
2023-01-10T09:07:10.573Z,4.08
2023-01-10T09:09:37.561Z,4.07
2023-01-10T09:12:04.442Z,4.01
2023-01-10T09:14:31.023Z,3.97
2023-01-10T09:16:57.623Z,3.99
2023-01-10T09:19:24.203Z,3.97
2023-01-10T09:21:50.770Z,4.08
2023-01-10T09:24:17.346Z,3.97
2023-01-10T09:26:43.936Z,3.90
2023-01-10T09:29:10.505Z,3.89
2023-01-10T09:31:37.140Z,3.89
2023-01-10T09:34:03.742Z,3.83
2023-01-10T09:36:30.398Z,3.70
2023-01-10T09:38:57.001Z,3.85
2023-01-10T09:41:38.542Z,3.70
2023-01-10T09:44:12.807Z,3.74
2023-01-10T09:46:46.858Z,3.94
2023-01-10T09:49:36.485Z,3.78
2023-01-10T09:52:03.514Z,3.77
2023-01-10T09:54:43.296Z,3.70
2023-01-10T09:57:21.877Z,3.65
2023-01-10T09:59:49.944Z,3.57
2023-01-10T10:02:41.358Z,3.53
2023-01-10T10:05:18.799Z,3.45
2023-01-10T10:07:52.787Z,3.32
2023-01-10T10:10:25.884Z,3.47
2023-01-10T10:13:31.816Z,3.51
2023-01-10T10:16:30.257Z,3.56
2023-01-10T10:18:59.505Z,3.55
2023-01-10T10:21:58.474Z,3.37
2023-01-10T10:24:30.841Z,3.37
2023-01-10T10:27:00.137Z,3.44
2023-01-10T10:29:44.968Z,3.35
2023-01-10T10:32:33.097Z,3.34
2023-01-10T10:35:27.641Z,3.34
2023-01-10T10:37:59.169Z,3.37
2023-01-10T10:40:34.280Z,3.31
2023-01-10T10:43:14.295Z,3.35
2023-01-10T10:46:08.740Z,3.23
2023-01-10T10:48:53.820Z,3.27
2023-01-10T10:51:29.363Z,3.24
2023-01-10T10:53:57.929Z,3.31
2023-01-10T10:56:26.625Z,3.27
2023-01-10T10:58:56.873Z,3.31
2023-01-10T11:01:26.391Z,3.34
2023-01-10T11:03:58.628Z,3.29
2023-01-10T11:06:27.855Z,3.27
2023-01-10T11:08:57.538Z,3.24
2023-01-10T11:11:39.568Z,3.23
2023-01-10T11:14:08.283Z,3.24
2023-01-10T11:16:43.846Z,3.28
2023-01-10T11:19:25.077Z,3.23
2023-01-10T11:21:59.321Z,3.11
2023-01-10T11:24:28.973Z,3.10
2023-01-10T11:26:57.152Z,3.28
2023-01-10T11:29:39.099Z,3.10
2023-01-10T11:32:12.847Z,3.23
2023-01-10T11:34:39.792Z,3.22
2023-01-10T11:37:20.486Z,3.27
2023-01-10T11:39:47.155Z,3.32
2023-01-10T11:42:31.709Z,3.31
2023-01-10T11:45:17.137Z,3.25
2023-01-10T11:47:47.674Z,3.31
2023-01-10T11:50:37.849Z,3.26
2023-01-10T11:53:06.924Z,3.17
2023-01-10T11:55:37.584Z,3.35
2023-01-10T11:58:08.069Z,3.31
2023-01-10T12:00:55.974Z,3.25
2023-01-10T12:03:32.319Z,3.16
2023-01-10T12:06:02.424Z,3.22
2023-01-10T12:08:39.480Z,3.22
2023-01-10T12:11:13.316Z,3.25
2023-01-10T12:13:51.044Z,3.37
2023-01-10T12:16:19.558Z,3.42
2023-01-10T12:18:46.447Z,3.24
2023-01-10T12:21:16.408Z,3.33
2023-01-10T12:23:45.435Z,3.42
2023-01-10T12:26:13.354Z,3.34
2023-01-10T12:28:50.861Z,3.45
2023-01-10T12:31:17.829Z,3.33
2023-01-10T12:33:51.789Z,3.39
2023-01-10T12:36:49.523Z,3.39
2023-01-10T12:39:27.469Z,3.40
2023-01-10T12:41:53.990Z,3.42
2023-01-10T12:44:47.715Z,3.39
2023-01-10T12:47:48.880Z,3.37
2023-01-10T12:50:26.998Z,3.40
2023-01-10T12:53:09.492Z,3.46
2023-01-10T12:55:42.068Z,3.50
2023-01-10T12:58:34.809Z,3.59
2023-01-10T13:01:03.528Z,3.47
2023-01-10T13:03:33.549Z,3.58
2023-01-10T13:06:01.556Z,3.52
2023-01-10T13:08:32.691Z,3.44
2023-01-10T13:11:01.205Z,3.59
2023-01-10T13:13:33.531Z,3.55
2023-01-10T13:16:18.538Z,3.50
2023-01-10T13:19:03.802Z,3.41
2023-01-10T13:21:33.264Z,3.47
2023-01-10T13:24:04.292Z,3.59
2023-01-10T13:26:48.263Z,3.44
2023-01-10T13:29:26.215Z,3.54
2023-01-10T13:32:00.907Z,3.41
2023-01-10T13:34:33.647Z,3.62
2023-01-10T13:37:04.928Z,3.55
2023-01-10T13:39:36.340Z,3.57
2023-01-10T13:42:02.960Z,3.56
2023-01-10T13:44:29.540Z,3.59
2023-01-10T13:46:56.356Z,3.75
2023-01-10T13:49:39.928Z,3.72
2023-01-10T13:52:32.174Z,3.80
2023-01-10T13:55:01.350Z,3.80
2023-01-10T13:57:57.017Z,3.75
2023-01-10T14:00:34.616Z,3.64
2023-01-10T14:03:01.264Z,3.57
2023-01-10T14:05:28.183Z,3.85
2023-01-10T14:07:54.888Z,3.82
2023-01-10T14:10:32.120Z,3.80
2023-01-10T14:13:05.390Z,3.77
2023-01-10T14:15:42.173Z,3.71
2023-01-10T14:18:23.023Z,3.55
2023-01-10T14:21:10.406Z,3.54
2023-01-10T14:23:49.760Z,3.76
2023-01-10T14:26:30.927Z,3.65
2023-01-10T14:29:00.277Z,3.61
2023-01-10T14:31:27.724Z,3.67
2023-01-10T14:33:54.900Z,3.70
2023-01-10T14:36:29.569Z,3.68
2023-01-10T14:38:59.928Z,3.63
2023-01-10T14:41:35.532Z,3.55
2023-01-10T14:44:20.129Z,3.62
2023-01-10T14:46:57.698Z,3.55
2023-01-10T14:49:50.388Z,3.93
2023-01-10T14:52:23.388Z,3.82
2023-01-10T14:55:06.636Z,3.65
2023-01-10T14:57:33.356Z,3.82
2023-01-10T15:00:17.508Z,3.79
2023-01-10T15:02:48.871Z,3.69
2023-01-10T15:05:24.881Z,3.61
2023-01-10T15:07:52.677Z,3.70
2023-01-10T15:10:28.905Z,3.67
2023-01-10T15:12:59.041Z,3.67
2023-01-10T15:15:34.688Z,3.58
2023-01-10T15:18:07.884Z,3.54
2023-01-10T15:20:34.774Z,3.53
2023-01-10T15:23:02.126Z,3.42
2023-01-10T15:25:37.268Z,3.41
2023-01-10T15:28:05.386Z,3.63
2023-01-10T15:30:36.888Z,3.61
2023-01-10T15:33:08.824Z,3.59
2023-01-10T15:35:37.106Z,3.51
2023-01-10T15:38:35.412Z,3.47
2023-01-10T15:41:05.257Z,3.57
2023-01-10T15:43:33.812Z,3.50
2023-01-10T15:46:03.551Z,3.40
2023-01-10T15:48:41.250Z,3.44
2023-01-10T15:51:35.744Z,3.51
2023-01-10T15:54:05.388Z,3.69
2023-01-10T15:57:01.177Z,3.66
2023-01-10T15:59:31.518Z,3.58
2023-01-10T16:02:21.380Z,3.54
2023-01-10T16:04:56.147Z,3.63
2023-01-10T16:07:33.361Z,3.47
2023-01-10T16:10:05.840Z,3.62
2023-01-10T16:12:38.232Z,3.47
2023-01-10T16:15:15.358Z,3.68
2023-01-10T16:17:41.949Z,3.53
2023-01-10T16:20:13.126Z,3.49
2023-01-10T16:22:40.051Z,3.57
2023-01-10T16:25:07.499Z,3.58
2023-01-10T16:27:34.115Z,3.51
2023-01-10T16:30:00.763Z,3.65
2023-01-10T16:32:27.399Z,3.69
2023-01-10T16:34:54.001Z,3.58
2023-01-10T16:37:20.599Z,3.67
2023-01-10T16:39:47.216Z,3.45
2023-01-10T16:42:13.824Z,3.55
2023-01-10T16:44:40.404Z,3.82
2023-01-10T16:47:07.374Z,3.69
2023-01-10T16:49:34.463Z,3.78
2023-01-10T16:52:01.078Z,3.63
2023-01-10T16:54:27.693Z,3.63
2023-01-10T16:56:54.348Z,3.60
2023-01-10T16:59:20.991Z,3.59
2023-01-10T17:01:54.611Z,3.76
2023-01-10T17:04:27.836Z,3.70
2023-01-10T17:06:54.469Z,3.59
2023-01-10T17:09:29.550Z,3.75
2023-01-10T17:12:00.293Z,3.92
2023-01-10T17:14:27.275Z,3.73
2023-01-10T17:16:53.929Z,3.68
2023-01-10T17:19:20.741Z,3.70
2023-01-10T17:21:47.328Z,3.65
2023-01-10T17:24:14.047Z,3.70
2023-01-10T17:26:40.647Z,3.68
2023-01-10T17:29:07.244Z,3.77
2023-01-10T17:31:33.998Z,3.71
2023-01-10T17:34:00.645Z,3.79
2023-01-10T17:36:27.245Z,3.78
2023-01-10T17:38:53.882Z,3.92
2023-01-10T17:41:20.469Z,3.69
2023-01-10T17:43:47.101Z,3.66
2023-01-10T17:46:14.959Z,3.70
2023-01-10T17:48:41.552Z,3.73
2023-01-10T17:51:08.135Z,3.80
2023-01-10T17:53:34.713Z,3.80
2023-01-10T17:56:01.358Z,3.95
2023-01-10T17:58:28.472Z,3.79
2023-01-10T18:00:55.247Z,3.72
2023-01-10T18:03:21.968Z,3.91
2023-01-10T18:05:52.816Z,4.04
2023-01-10T18:08:20.523Z,3.82
2023-01-10T18:10:47.438Z,3.75
2023-01-10T18:13:16.318Z,3.69
2023-01-10T18:15:47.438Z,3.73
2023-01-10T18:18:14.148Z,3.69
2023-01-10T18:20:42.379Z,3.96
2023-01-10T18:23:12.718Z,3.79
2023-01-10T18:25:39.318Z,3.73
2023-01-10T18:28:05.923Z,3.87
2023-01-10T18:30:32.598Z,3.86
2023-01-10T18:32:59.197Z,3.79
2023-01-10T18:35:25.790Z,3.70
2023-01-10T18:37:52.466Z,3.81
2023-01-10T18:40:19.176Z,3.75
2023-01-10T18:42:45.793Z,3.83
2023-01-10T18:45:12.406Z,3.76
2023-01-10T18:47:38.987Z,3.76
2023-01-10T18:50:07.321Z,3.68
2023-01-10T18:52:34.037Z,3.72
2023-01-10T18:55:02.358Z,3.90
2023-01-10T18:57:30.880Z,3.81
2023-01-10T18:59:57.482Z,3.86
2023-01-10T19:02:24.097Z,3.78
2023-01-10T19:04:50.697Z,3.76
2023-01-10T19:07:17.379Z,3.76
2023-01-10T19:09:44.054Z,3.70
2023-01-10T19:12:10.635Z,3.80
2023-01-10T19:14:37.276Z,3.86
2023-01-10T19:17:03.967Z,3.95
2023-01-10T19:19:30.658Z,3.98
2023-01-10T19:21:57.270Z,4.01
2023-01-10T19:24:26.329Z,3.92
2023-01-10T19:26:53.636Z,3.77
2023-01-10T19:29:20.347Z,3.73
2023-01-10T19:31:46.961Z,3.76
2023-01-10T19:34:13.836Z,3.69
2023-01-10T19:36:40.618Z,3.75
2023-01-10T19:39:09.406Z,3.77
2023-01-10T19:41:37.044Z,3.71
2023-01-10T19:44:06.388Z,3.82
2023-01-10T19:46:33.036Z,3.91
2023-01-10T19:49:00.954Z,3.70
2023-01-10T19:51:27.682Z,3.75
2023-01-10T19:53:54.411Z,3.79
2023-01-10T19:56:20.986Z,3.74
2023-01-10T19:58:48.388Z,3.75
2023-01-10T20:01:17.830Z,3.75
2023-01-10T20:03:44.525Z,3.69
2023-01-10T20:06:11.600Z,3.74
2023-01-10T20:08:38.171Z,3.80
2023-01-10T20:11:06.278Z,3.85
2023-01-10T20:13:38.562Z,3.78
2023-01-10T20:16:06.140Z,3.83
2023-01-10T20:18:33.035Z,3.82
2023-01-10T20:21:04.276Z,3.87
2023-01-10T20:23:31.227Z,3.80
2023-01-10T20:26:03.670Z,3.86
2023-01-10T20:28:30.577Z,3.79
2023-01-10T20:30:57.199Z,3.78
2023-01-10T20:33:23.857Z,3.83
2023-01-10T20:36:01.823Z,3.87
2023-01-10T20:38:29.165Z,3.75
2023-01-10T20:41:01.185Z,3.75
2023-01-10T20:43:28.046Z,3.71
2023-01-10T20:45:54.640Z,3.75
2023-01-10T20:48:21.719Z,3.81
2023-01-10T20:50:48.333Z,3.71
2023-01-10T20:53:15.200Z,3.77
2023-01-10T20:55:41.787Z,3.76
2023-01-10T20:58:08.365Z,3.79
2023-01-10T21:00:35.173Z,3.90
2023-01-10T21:03:02.010Z,3.84
2023-01-10T21:05:28.687Z,3.77
2023-01-10T21:07:55.248Z,3.79
2023-01-10T21:10:21.848Z,3.72
2023-01-10T21:12:48.667Z,3.73
2023-01-10T21:15:15.265Z,3.93
2023-01-10T21:17:41.858Z,3.73
2023-01-10T21:20:10.537Z,3.79
2023-01-10T21:22:37.136Z,3.79
2023-01-10T21:25:03.981Z,3.76
2023-01-10T21:27:30.642Z,3.85
2023-01-10T21:29:58.159Z,3.74
2023-01-10T21:32:24.982Z,3.78
2023-01-10T21:34:51.643Z,3.74
2023-01-10T21:37:18.439Z,3.91
2023-01-10T21:39:45.027Z,3.96
2023-01-10T21:42:11.855Z,3.76
2023-01-10T21:44:38.473Z,3.63
2023-01-10T21:47:05.187Z,3.62
2023-01-10T21:49:31.825Z,3.63
2023-01-10T21:51:58.510Z,3.77
2023-01-10T21:54:25.292Z,3.60
2023-01-10T21:56:51.872Z,3.61
2023-01-10T21:59:18.552Z,3.64
2023-01-10T22:01:46.475Z,3.65
2023-01-10T22:04:16.233Z,3.57
2023-01-10T22:06:43.703Z,3.58
2023-01-10T22:09:10.333Z,3.47
2023-01-10T22:11:36.897Z,3.47
2023-01-10T22:14:03.517Z,3.60
2023-01-10T22:16:30.478Z,3.50
2023-01-10T22:18:58.567Z,3.57
2023-01-10T22:21:25.139Z,3.41
2023-01-10T22:23:51.822Z,3.40
2023-01-10T22:26:18.396Z,3.42
2023-01-10T22:28:45.062Z,3.42
2023-01-10T22:31:11.786Z,3.48
2023-01-10T22:33:38.784Z,3.20
2023-01-10T22:36:18.460Z,3.30
2023-01-10T22:38:46.653Z,3.24
2023-01-10T22:41:16.316Z,3.05
2023-01-10T22:43:43.531Z,3.11
2023-01-10T22:46:11.180Z,3.16
2023-01-10T22:48:38.507Z,3.14
2023-01-10T22:51:05.217Z,3.07
2023-01-10T22:53:32.147Z,3.10
2023-01-10T22:56:03.914Z,3.06
2023-01-10T22:58:30.580Z,2.99
2023-01-10T23:00:57.519Z,2.94
2023-01-10T23:03:24.639Z,3.00
2023-01-10T23:05:55.966Z,2.87
2023-01-10T23:08:22.811Z,2.87
2023-01-10T23:10:49.479Z,2.82
2023-01-10T23:13:16.054Z,2.85
2023-01-10T23:15:42.667Z,2.81
2023-01-10T23:18:09.514Z,2.86
2023-01-10T23:20:36.161Z,2.60
2023-01-10T23:23:02.812Z,2.51
2023-01-10T23:25:29.397Z,2.62
2023-01-10T23:27:56.086Z,2.53
2023-01-10T23:30:22.739Z,2.48
2023-01-10T23:32:49.302Z,2.76
2023-01-10T23:35:16.032Z,2.61
2023-01-10T23:37:42.720Z,2.29
2023-01-10T23:40:09.827Z,2.26
2023-01-10T23:42:36.416Z,2.34
2023-01-10T23:45:03.096Z,2.26
2023-01-10T23:47:29.688Z,2.30
2023-01-10T23:49:57.426Z,2.33
2023-01-10T23:52:24.016Z,2.31
2023-01-10T23:54:50.604Z,2.35
2023-01-10T23:57:17.265Z,2.26
2023-01-10T23:59:43.836Z,2.16
